Sheikhupura Weather



Sheikhupura's Current Weather

Temprature 16o smoke

smoke

Rain: 0 %

Min Temprature16o
Max Temprature16o
Humidity72
Wind Speed0.91 m/h
Sun Rise06:17:02
Sun Set17:18:28
Current Time: 28-Oct-2020 05:24:57
Lat/Lon: 31.71, 73.98




Sheikhupura's Geo Location



Sheikhupura's Weather Forecast

Time Overall Temp Min Temp Max Temp Humidity Wind Speed Rain
28-Oct-2020 (Wed)
08:00:00 clear sky 18.970 18.970 22.090 46 1.77 m/h 0 %
11:00:00 clear sky 28.070 28.070 31.390 24 1.14 m/h 0 %
14:00:00 clear sky 32.350 32.350 33.470 13 0.8 m/h 0 %
17:00:00 clear sky 27.600 27.600 27.690 15 1.65 m/h 0 %
20:00:00 clear sky 22.470 22.470 22.470 20 2.63 m/h 0 %
23:00:00 clear sky 20.410 20.410 20.410 23 1.76 m/h 0 %
29-Oct-2020 (Thu)
02:00:00 clear sky 19.020 19.020 19.020 24 3.15 m/h 0 %
05:00:00 clear sky 16.940 16.940 16.940 28 1.99 m/h 0 %
08:00:00 clear sky 21.450 21.450 21.450 21 1.85 m/h 0 %
11:00:00 clear sky 30.420 30.420 30.420 12 2.79 m/h 0 %
14:00:00 clear sky 34.000 34.000 34.000 10 1.11 m/h 0 %
17:00:00 clear sky 28.260 28.260 28.260 14 1.59 m/h 0 %
20:00:00 clear sky 22.450 22.450 22.450 21 1.67 m/h 0 %
23:00:00 clear sky 20.800 20.800 20.800 23 2.34 m/h 0 %
30-Oct-2020 (Fri)
02:00:00 clear sky 18.450 18.450 18.450 26 2.03 m/h 0 %
05:00:00 clear sky 17.090 17.090 17.090 29 1.98 m/h 0 %
08:00:00 clear sky 21.520 21.520 21.520 22 1.5 m/h 0 %
11:00:00 clear sky 30.020 30.020 30.020 13 2.12 m/h 0 %
14:00:00 clear sky 32.770 32.770 32.770 11 2.23 m/h 0 %
17:00:00 clear sky 27.740 27.740 27.740 14 2.48 m/h 0 %
20:00:00 clear sky 22.380 22.380 22.380 19 3.22 m/h 0 %
23:00:00 clear sky 18.950 18.950 18.950 24 2.95 m/h 0 %
31-Oct-2020 (Sat)
02:00:00 clear sky 17.210 17.210 17.210 27 2.3 m/h 0 %
05:00:00 clear sky 15.830 15.830 15.830 29 2.12 m/h 0 %
08:00:00 clear sky 20.400 20.400 20.400 22 1.63 m/h 0 %
11:00:00 clear sky 30.570 30.570 30.570 11 3.65 m/h 0 %
14:00:00 clear sky 33.230 33.230 33.230 9 5.34 m/h 0 %
17:00:00 clear sky 26.810 26.810 26.810 13 2.51 m/h 0 %
20:00:00 clear sky 20.960 20.960 20.960 20 2.28 m/h 0 %
23:00:00 clear sky 18.290 18.290 18.290 24 1.9 m/h 0 %
01-Nov-2020 (Sun)
02:00:00 clear sky 16.640 16.640 16.640 26 1.42 m/h 0 %
05:00:00 clear sky 14.980 14.980 14.980 29 1.52 m/h 0 %
08:00:00 clear sky 19.920 19.920 19.920 21 0.97 m/h 0 %
11:00:00 clear sky 29.600 29.600 29.600 12 1.95 m/h 0 %
14:00:00 clear sky 32.510 32.510 32.510 9 3.31 m/h 0 %
17:00:00 clear sky 26.560 26.560 26.560 14 2.23 m/h 0 %
20:00:00 clear sky 21.360 21.360 21.360 19 1.27 m/h 0 %
23:00:00 clear sky 18.120 18.120 18.120 23 0.78 m/h 0 %
02-Nov-2020 (Mon)
02:00:00 clear sky 16.450 16.450 16.450 26 0.55 m/h 0 %
05:00:00 clear sky 14.780 14.780 14.780 30 0.41 m/h 0 %

Famous Cities (60)